sensor_id;sensor_type;location;lat;lon;timestamp;pressure;altitude;pressure_sealevel;temperature;humidity
43741;BME280;29352;48.708;9.290;2023-08-07T00:00:41;97675.72;;;4.86;87.05
43741;BME280;29352;48.708;9.290;2023-08-07T00:03:07;97677.84;;;4.90;86.32
43741;BME280;29352;48.708;9.290;2023-08-07T00:05:32;97681.72;;;5.09;85.72
43741;BME280;29352;48.708;9.290;2023-08-07T00:07:58;97687.56;;;5.05;86.15
43741;BME280;29352;48.708;9.290;2023-08-07T00:10:23;97689.47;;;5.11;85.57
43741;BME280;29352;48.708;9.290;2023-08-07T00:12:49;97686.22;;;4.94;85.90
43741;BME280;29352;48.708;9.290;2023-08-07T00:15:15;97687.84;;;4.95;85.38
43741;BME280;29352;48.708;9.290;2023-08-07T00:17:40;97697.41;;;4.96;85.10
43741;BME280;29352;48.708;9.290;2023-08-07T00:20:06;97692.66;;;5.06;85.38
43741;BME280;29352;48.708;9.290;2023-08-07T00:22:32;97696.84;;;5.15;84.71
43741;BME280;29352;48.708;9.290;2023-08-07T00:24:58;97691.72;;;4.78;85.35
43741;BME280;29352;48.708;9.290;2023-08-07T00:27:24;97703.63;;;4.88;85.25
43741;BME280;29352;48.708;9.290;2023-08-07T00:29:49;97706.28;;;4.88;84.54
43741;BME280;29352;48.708;9.290;2023-08-07T00:32:14;97708.97;;;5.10;84.10
43741;BME280;29352;48.708;9.290;2023-08-07T00:34:40;97712.03;;;4.92;84.63
43741;BME280;29352;48.708;9.290;2023-08-07T00:37:05;97713.16;;;4.83;85.49
43741;BME280;29352;48.708;9.290;2023-08-07T00:39:31;97715.28;;;5.09;84.16
43741;BME280;29352;48.708;9.290;2023-08-07T00:41:56;97712.28;;;5.12;84.07
43741;BME280;29352;48.708;9.290;2023-08-07T00:44:22;97711.47;;;5.11;84.54
43741;BME280;29352;48.708;9.290;2023-08-07T00:46:49;97724.03;;;5.09;84.22
43741;BME280;29352;48.708;9.290;2023-08-07T00:49:16;97710.16;;;5.43;82.91
43741;BME280;29352;48.708;9.290;2023-08-07T00:51:43;97722.56;;;5.21;83.69
43741;BME280;29352;48.708;9.290;2023-08-07T00:54:12;97713.81;;;5.21;83.53
43741;BME280;29352;48.708;9.290;2023-08-07T00:56:40;97712.38;;;5.40;83.23
43741;BME280;29352;48.708;9.290;2023-08-07T00:59:06;97720.81;;;5.29;82.93
43741;BME280;29352;48.708;9.290;2023-08-07T01:01:33;97713.03;;;5.42;82.79
43741;BME280;29352;48.708;9.290;2023-08-07T01:03:59;97716.00;;;5.17;82.73
43741;BME280;29352;48.708;9.290;2023-08-07T01:06:24;97716.91;;;5.25;83.18
43741;BME280;29352;48.708;9.290;2023-08-07T01:08:50;97712.97;;;5.20;82.60
43741;BME280;29352;48.708;9.290;2023-08-07T01:11:24;97720.44;;;5.32;82.33
43741;BME280;29352;48.708;9.290;2023-08-07T01:19:25;97739.91;;;5.09;82.77
43741;BME280;29352;48.708;9.290;2023-08-07T01:22:12;97730.66;;;5.35;81.99
43741;BME280;29352;48.708;9.290;2023-08-07T01:24:39;97725.47;;;5.27;82.04
43741;BME280;29352;48.708;9.290;2023-08-07T01:29:54;97730.38;;;5.30;81.79
43741;BME280;29352;48.708;9.290;2023-08-07T01:35:43;97735.22;;;5.26;82.46
43741;BME280;29352;48.708;9.290;2023-08-07T01:38:12;97736.66;;;5.07;82.81
43741;BME280;29352;48.708;9.290;2023-08-07T01:40:39;97728.31;;;5.25;82.51
43741;BME280;29352;48.708;9.290;2023-08-07T01:43:07;97733.69;;;5.17;81.92
43741;BME280;29352;48.708;9.290;2023-08-07T01:45:34;97726.47;;;5.26;82.16
43741;BME280;29352;48.708;9.290;2023-08-07T01:48:00;97732.91;;;5.02;82.08
43741;BME280;29352;48.708;9.290;2023-08-07T01:50:26;97729.84;;;5.19;81.93
43741;BME280;29352;48.708;9.290;2023-08-07T01:52:52;97735.97;;;5.20;81.84
43741;BME280;29352;48.708;9.290;2023-08-07T01:55:20;97731.00;;;5.10;82.41
43741;BME280;29352;48.708;9.290;2023-08-07T01:57:46;97724.94;;;5.16;81.52
43741;BME280;29352;48.708;9.290;2023-08-07T02:00:12;97735.50;;;5.16;82.26
43741;BME280;29352;48.708;9.290;2023-08-07T02:02:38;97735.44;;;5.10;82.54
43741;BME280;29352;48.708;9.290;2023-08-07T02:05:04;97734.03;;;5.29;81.50
43741;BME280;29352;48.708;9.290;2023-08-07T02:07:30;97735.53;;;5.02;82.51
43741;BME280;29352;48.708;9.290;2023-08-07T02:09:57;97739.38;;;4.99;81.68
43741;BME280;29352;48.708;9.290;2023-08-07T02:12:23;97731.47;;;4.84;82.93
43741;BME280;29352;48.708;9.290;2023-08-07T02:14:50;97730.66;;;5.20;81.43
43741;BME280;29352;48.708;9.290;2023-08-07T02:17:16;97735.28;;;4.96;81.84
43741;BME280;29352;48.708;9.290;2023-08-07T02:19:41;97736.63;;;4.92;81.77
43741;BME280;29352;48.708;9.290;2023-08-07T02:22:07;97745.13;;;5.03;81.21
43741;BME280;29352;48.708;9.290;2023-08-07T02:24:32;97737.63;;;5.06;81.11
43741;BME280;29352;48.708;9.290;2023-08-07T02:26:57;97735.06;;;5.13;81.39
43741;BME280;29352;48.708;9.290;2023-08-07T02:29:23;97741.50;;;5.04;80.65
43741;BME280;29352;48.708;9.290;2023-08-07T02:31:48;97740.81;;;5.16;80.90
43741;BME280;29352;48.708;9.290;2023-08-07T02:34:14;97740.84;;;5.02;81.01
43741;BME280;29352;48.708;9.290;2023-08-07T02:36:39;97743.38;;;5.10;81.27
43741;BME280;29352;48.708;9.290;2023-08-07T02:39:05;97744.50;;;5.01;81.41
43741;BME280;29352;48.708;9.290;2023-08-07T02:41:30;97749.88;;;5.07;80.85
43741;BME280;29352;48.708;9.290;2023-08-07T02:43:56;97748.22;;;4.91;80.73
43741;BME280;29352;48.708;9.290;2023-08-07T02:46:22;97750.78;;;4.99;81.16
43741;BME280;29352;48.708;9.290;2023-08-07T02:48:47;97763.38;;;4.83;80.16
43741;BME280;29352;48.708;9.290;2023-08-07T02:51:13;97750.97;;;4.98;80.19
43741;BME280;29352;48.708;9.290;2023-08-07T02:53:38;97755.31;;;5.20;78.79
43741;BME280;29352;48.708;9.290;2023-08-07T02:56:04;97753.53;;;4.91;79.01
43741;BME280;29352;48.708;9.290;2023-08-07T02:58:29;97743.97;;;4.76;79.26
43741;BME280;29352;48.708;9.290;2023-08-07T03:00:55;97752.78;;;4.97;78.10
43741;BME280;29352;48.708;9.290;2023-08-07T03:03:20;97747.31;;;4.84;77.97
43741;BME280;29352;48.708;9.290;2023-08-07T03:05:50;97757.00;;;5.07;77.32
43741;BME280;29352;48.708;9.290;2023-08-07T03:08:16;97750.97;;;4.68;77.94
43741;BME280;29352;48.708;9.290;2023-08-07T03:10:42;97756.38;;;4.90;77.61
43741;BME280;29352;48.708;9.290;2023-08-07T03:13:15;97762.81;;;5.02;77.34
43741;BME280;29352;48.708;9.290;2023-08-07T03:15:41;97766.19;;;4.96;77.52
43741;BME280;29352;48.708;9.290;2023-08-07T03:18:06;97773.31;;;4.66;77.68
43741;BME280;29352;48.708;9.290;2023-08-07T03:20:32;97773.59;;;5.01;76.40
43741;BME280;29352;48.708;9.290;2023-08-07T03:22:57;97779.16;;;4.91;76.41
43741;BME280;29352;48.708;9.290;2023-08-07T03:25:22;97774.22;;;4.88;76.85
43741;BME280;29352;48.708;9.290;2023-08-07T03:27:48;97779.78;;;5.08;76.26
43741;BME280;29352;48.708;9.290;2023-08-07T03:30:13;97778.53;;;5.04;75.75
43741;BME280;29352;48.708;9.290;2023-08-07T03:32:38;97764.94;;;4.77;76.61
43741;BME280;29352;48.708;9.290;2023-08-07T03:35:05;97763.81;;;4.71;76.54
43741;BME280;29352;48.708;9.290;2023-08-07T03:37:30;97767.03;;;4.67;77.09
43741;BME280;29352;48.708;9.290;2023-08-07T03:39:56;97771.72;;;4.42;77.52
43741;BME280;29352;48.708;9.290;2023-08-07T03:42:21;97768.66;;;4.68;76.81
43741;BME280;29352;48.708;9.290;2023-08-07T03:44:47;97765.50;;;4.72;76.64
43741;BME280;29352;48.708;9.290;2023-08-07T03:47:12;97762.53;;;4.53;77.44
43741;BME280;29352;48.708;9.290;2023-08-07T03:49:38;97762.91;;;4.64;77.38
43741;BME280;29352;48.708;9.290;2023-08-07T03:52:04;97766.38;;;4.50;77.14
43741;BME280;29352;48.708;9.290;2023-08-07T03:54:29;97768.09;;;4.58;77.13
43741;BME280;29352;48.708;9.290;2023-08-07T03:56:55;97767.22;;;4.65;76.89
43741;BME280;29352;48.708;9.290;2023-08-07T03:59:20;97770.56;;;4.59;77.45
43741;BME280;29352;48.708;9.290;2023-08-07T04:01:46;97762.22;;;4.47;77.24
43741;BME280;29352;48.708;9.290;2023-08-07T04:04:11;97764.72;;;4.79;76.95
43741;BME280;29352;48.708;9.290;2023-08-07T04:06:37;97770.84;;;4.64;77.18
43741;BME280;29352;48.708;9.290;2023-08-07T04:09:02;97773.94;;;4.68;76.91
43741;BME280;29352;48.708;9.290;2023-08-07T04:11:28;97778.41;;;4.67;77.26
43741;BME280;29352;48.708;9.290;2023-08-07T04:13:54;97771.66;;;4.50;77.61
43741;BME280;29352;48.708;9.290;2023-08-07T04:16:20;97771.13;;;4.69;77.17
43741;BME280;29352;48.708;9.290;2023-08-07T04:18:45;97777.94;;;4.64;77.35
43741;BME280;29352;48.708;9.290;2023-08-07T04:21:11;97777.75;;;4.50;77.30
43741;BME280;29352;48.708;9.290;2023-08-07T04:23:36;97782.44;;;4.63;77.28
43741;BME280;29352;48.708;9.290;2023-08-07T04:26:02;97779.03;;;4.55;77.48
43741;BME280;29352;48.708;9.290;2023-08-07T04:28:28;97785.38;;;4.45;77.40
43741;BME280;29352;48.708;9.290;2023-08-07T04:30:54;97783.84;;;4.51;77.94
43741;BME280;29352;48.708;9.290;2023-08-07T04:33:20;97793.78;;;4.49;78.04
43741;BME280;29352;48.708;9.290;2023-08-07T04:35:47;97785.06;;;4.63;77.89
43741;BME280;29352;48.708;9.290;2023-08-07T04:38:16;97783.50;;;4.54;77.72
43741;BME280;29352;48.708;9.290;2023-08-07T04:40:46;97786.97;;;4.55;78.21
43741;BME280;29352;48.708;9.290;2023-08-07T04:43:13;97790.16;;;4.50;78.11
43741;BME280;29352;48.708;9.290;2023-08-07T04:45:40;97798.09;;;4.65;77.99
43741;BME280;29352;48.708;9.290;2023-08-07T04:48:09;97790.22;;;4.42;78.49
43741;BME280;29352;48.708;9.290;2023-08-07T04:50:34;97800.28;;;4.61;78.30
43741;BME280;29352;48.708;9.290;2023-08-07T04:53:00;97791.16;;;4.64;78.08
43741;BME280;29352;48.708;9.290;2023-08-07T04:55:25;97801.50;;;4.73;77.90
43741;BME280;29352;48.708;9.290;2023-08-07T04:57:51;97800.31;;;4.91;77.35
43741;BME280;29352;48.708;9.290;2023-08-07T05:00:20;97804.22;;;4.80;77.71
43741;BME280;29352;48.708;9.290;2023-08-07T05:02:46;97801.03;;;4.85;77.55
43741;BME280;29352;48.708;9.290;2023-08-07T05:05:13;97796.00;;;4.75;77.81
43741;BME280;29352;48.708;9.290;2023-08-07T05:07:40;97801.50;;;4.73;77.95
43741;BME280;29352;48.708;9.290;2023-08-07T05:10:06;97805.13;;;4.87;77.82
43741;BME280;29352;48.708;9.290;2023-08-07T05:12:32;97803.94;;;4.60;78.40
43741;BME280;29352;48.708;9.290;2023-08-07T05:14:58;97806.31;;;4.70;78.15
43741;BME280;29352;48.708;9.290;2023-08-07T05:17:23;97805.31;;;4.86;77.61
43741;BME280;29352;48.708;9.290;2023-08-07T05:19:49;97797.00;;;4.89;77.89
43741;BME280;29352;48.708;9.290;2023-08-07T05:22:15;97803.59;;;4.93;77.69
43741;BME280;29352;48.708;9.290;2023-08-07T05:24:40;97811.34;;;5.09;77.08
43741;BME280;29352;48.708;9.290;2023-08-07T05:27:09;97808.97;;;5.14;77.28
43741;BME280;29352;48.708;9.290;2023-08-07T05:29:35;97811.06;;;5.04;77.58
43741;BME280;29352;48.708;9.290;2023-08-07T05:32:11;97813.44;;;4.99;77.56
43741;BME280;29352;48.708;9.290;2023-08-07T05:34:38;97826.84;;;5.12;77.14
43741;BME280;29352;48.708;9.290;2023-08-07T05:37:05;97827.03;;;5.11;77.10
43741;BME280;29352;48.708;9.290;2023-08-07T05:39:31;97829.50;;;5.12;77.10
43741;BME280;29352;48.708;9.290;2023-08-07T05:41:56;97828.28;;;5.30;76.63
43741;BME280;29352;48.708;9.290;2023-08-07T05:44:27;97834.59;;;5.29;76.67
43741;BME280;29352;48.708;9.290;2023-08-07T05:46:52;97834.28;;;5.53;76.13
43741;BME280;29352;48.708;9.290;2023-08-07T05:49:18;97832.56;;;5.45;76.34
43741;BME280;29352;48.708;9.290;2023-08-07T05:51:44;97839.84;;;5.58;75.77
43741;BME280;29352;48.708;9.290;2023-08-07T05:54:09;97841.50;;;5.59;75.89
43741;BME280;29352;48.708;9.290;2023-08-07T05:56:36;97857.50;;;5.66;75.73
43741;BME280;29352;48.708;9.290;2023-08-07T05:59:03;97844.66;;;5.84;75.18
43741;BME280;29352;48.708;9.290;2023-08-07T06:01:28;97841.72;;;5.79;74.91
43741;BME280;29352;48.708;9.290;2023-08-07T06:03:57;97846.66;;;5.82;74.68
43741;BME280;29352;48.708;9.290;2023-08-07T06:06:24;97852.09;;;5.96;74.46
43741;BME280;29352;48.708;9.290;2023-08-07T06:08:51;97857.03;;;5.99;74.73
43741;BME280;29352;48.708;9.290;2023-08-07T06:11:16;97861.00;;;6.09;74.57
43741;BME280;29352;48.708;9.290;2023-08-07T06:13:42;97870.31;;;5.84;74.63
43741;BME280;29352;48.708;9.290;2023-08-07T06:16:08;97875.13;;;5.95;74.68
43741;BME280;29352;48.708;9.290;2023-08-07T06:18:33;97876.88;;;5.88;74.74
43741;BME280;29352;48.708;9.290;2023-08-07T06:20:59;97874.25;;;6.09;73.92
43741;BME280;29352;48.708;9.290;2023-08-07T06:23:25;97871.81;;;6.29;73.53
43741;BME280;29352;48.708;9.290;2023-08-07T06:25:51;97884.34;;;6.63;73.53
43741;BME280;29352;48.708;9.290;2023-08-07T06:28:16;97872.47;;;6.81;72.30
43741;BME280;29352;48.708;9.290;2023-08-07T06:30:42;97880.81;;;6.56;72.81
43741;BME280;29352;48.708;9.290;2023-08-07T06:33:07;97869.56;;;6.76;72.78
43741;BME280;29352;48.708;9.290;2023-08-07T06:35:37;97866.94;;;7.10;71.98
43741;BME280;29352;48.708;9.290;2023-08-07T06:38:04;97869.19;;;7.07;72.04
43741;BME280;29352;48.708;9.290;2023-08-07T06:40:30;97868.94;;;7.37;71.31
43741;BME280;29352;48.708;9.290;2023-08-07T06:42:55;97874.81;;;7.25;71.58
43741;BME280;29352;48.708;9.290;2023-08-07T06:45:20;97879.97;;;7.33;71.28
43741;BME280;29352;48.708;9.290;2023-08-07T06:47:46;97878.19;;;7.13;71.01
43741;BME280;29352;48.708;9.290;2023-08-07T06:50:13;97877.94;;;7.07;71.01
43741;BME280;29352;48.708;9.290;2023-08-07T06:52:39;97883.16;;;7.22;69.99
43741;BME280;29352;48.708;9.290;2023-08-07T06:55:05;97872.06;;;7.47;69.24
43741;BME280;29352;48.708;9.290;2023-08-07T06:57:32;97878.44;;;7.59;69.10
43741;BME280;29352;48.708;9.290;2023-08-07T06:59:57;97871.31;;;7.59;68.36
43741;BME280;29352;48.708;9.290;2023-08-07T07:02:22;97869.03;;;8.11;67.13
43741;BME280;29352;48.708;9.290;2023-08-07T07:04:48;97859.25;;;8.25;67.45
43741;BME280;29352;48.708;9.290;2023-08-07T07:07:14;97863.78;;;8.97;67.06
43741;BME280;29352;48.708;9.290;2023-08-07T07:09:39;97858.81;;;9.34;66.10
43741;BME280;29352;48.708;9.290;2023-08-07T07:12:05;97869.19;;;9.49;65.26
43741;BME280;29352;48.708;9.290;2023-08-07T07:14:32;97874.66;;;9.74;65.38
43741;BME280;29352;48.708;9.290;2023-08-07T07:17:01;97868.34;;;9.62;64.93
43741;BME280;29352;48.708;9.290;2023-08-07T07:19:26;97868.22;;;9.43;65.09
43741;BME280;29352;48.708;9.290;2023-08-07T07:21:52;97878.38;;;9.60;65.35
43741;BME280;29352;48.708;9.290;2023-08-07T07:24:18;97879.13;;;9.87;64.92
43741;BME280;29352;48.708;9.290;2023-08-07T07:26:44;97881.13;;;9.91;64.61
43741;BME280;29352;48.708;9.290;2023-08-07T07:29:09;97881.81;;;9.80;64.46
43741;BME280;29352;48.708;9.290;2023-08-07T07:31:35;97882.69;;;9.61;65.23
43741;BME280;29352;48.708;9.290;2023-08-07T07:34:00;97878.47;;;9.33;65.10
43741;BME280;29352;48.708;9.290;2023-08-07T07:36:26;97871.91;;;9.29;62.73
43741;BME280;29352;48.708;9.290;2023-08-07T07:38:51;97876.50;;;8.89;63.41
43741;BME280;29352;48.708;9.290;2023-08-07T07:41:17;97877.91;;;8.98;63.44
43741;BME280;29352;48.708;9.290;2023-08-07T07:43:43;97883.44;;;9.16;63.94
43741;BME280;29352;48.708;9.290;2023-08-07T07:46:09;97878.41;;;9.46;62.45
43741;BME280;29352;48.708;9.290;2023-08-07T07:48:34;97878.41;;;9.46;61.90
43741;BME280;29352;48.708;9.290;2023-08-07T07:51:01;97883.00;;;9.84;61.95
43741;BME280;29352;48.708;9.290;2023-08-07T07:53:28;97878.84;;;9.43;63.36
43741;BME280;29352;48.708;9.290;2023-08-07T07:55:54;97877.16;;;10.07;61.37
43741;BME280;29352;48.708;9.290;2023-08-07T07:58:20;97873.16;;;10.86;59.23
43741;BME280;29352;48.708;9.290;2023-08-07T08:00:46;97876.41;;;10.88;59.68
43741;BME280;29352;48.708;9.290;2023-08-07T08:03:12;97874.03;;;10.99;58.72
43741;BME280;29352;48.708;9.290;2023-08-07T08:05:38;97879.13;;;11.07;58.06
43741;BME280;29352;48.708;9.290;2023-08-07T08:08:06;97885.75;;;10.48;59.03
43741;BME280;29352;48.708;9.290;2023-08-07T08:10:35;97896.56;;;9.83;59.18
43741;BME280;29352;48.708;9.290;2023-08-07T08:13:01;97898.78;;;9.92;59.33
43741;BME280;29352;48.708;9.290;2023-08-07T08:15:29;97899.22;;;9.89;59.12
43741;BME280;29352;48.708;9.290;2023-08-07T08:17:55;97893.16;;;9.49;58.55
43741;BME280;29352;48.708;9.290;2023-08-07T08:20:20;97895.66;;;9.37;59.20
43741;BME280;29352;48.708;9.290;2023-08-07T08:22:46;97896.44;;;9.58;59.44
43741;BME280;29352;48.708;9.290;2023-08-07T08:25:13;97900.19;;;9.30;60.70
43741;BME280;29352;48.708;9.290;2023-08-07T08:27:39;97904.72;;;8.57;61.41
43741;BME280;29352;48.708;9.290;2023-08-07T08:30:06;97901.91;;;8.85;61.55
43741;BME280;29352;48.708;9.290;2023-08-07T08:32:32;97900.41;;;8.56;61.50
43741;BME280;29352;48.708;9.290;2023-08-07T08:34:58;97910.63;;;9.38;60.87
43741;BME280;29352;48.708;9.290;2023-08-07T08:37:24;97904.31;;;9.19;60.45
43741;BME280;29352;48.708;9.290;2023-08-07T08:39:49;97897.66;;;9.62;60.39
43741;BME280;29352;48.708;9.290;2023-08-07T08:42:15;97903.53;;;9.84;58.56
43741;BME280;29352;48.708;9.290;2023-08-07T08:44:55;97895.56;;;10.54;57.51
43741;BME280;29352;48.708;9.290;2023-08-07T08:47:22;97897.03;;;10.43;57.43
43741;BME280;29352;48.708;9.290;2023-08-07T08:50:01;97886.44;;;10.93;56.25
43741;BME280;29352;48.708;9.290;2023-08-07T08:52:31;97883.94;;;11.42;55.33
43741;BME280;29352;48.708;9.290;2023-08-07T08:55:00;97890.75;;;11.74;55.46
43741;BME280;29352;48.708;9.290;2023-08-07T08:57:27;97899.31;;;12.43;55.56
43741;BME280;29352;48.708;9.290;2023-08-07T08:59:56;97894.72;;;12.20;54.34
43741;BME280;29352;48.708;9.290;2023-08-07T09:02:22;97896.72;;;12.25;53.57
43741;BME280;29352;48.708;9.290;2023-08-07T09:04:47;97895.53;;;12.74;51.64
43741;BME280;29352;48.708;9.290;2023-08-07T09:07:15;97896.41;;;13.34;50.72
43741;BME280;29352;48.708;9.290;2023-08-07T09:09:45;97903.97;;;14.41;49.29
43741;BME280;29352;48.708;9.290;2023-08-07T09:12:20;97901.94;;;14.48;48.75
43741;BME280;29352;48.708;9.290;2023-08-07T09:14:56;97900.56;;;13.65;50.76
43741;BME280;29352;48.708;9.290;2023-08-07T09:17:26;97909.91;;;13.50;50.89
43741;BME280;29352;48.708;9.290;2023-08-07T09:19:54;97913.34;;;13.98;49.94
43741;BME280;29352;48.708;9.290;2023-08-07T09:22:21;97912.84;;;14.30;50.01
43741;BME280;29352;48.708;9.290;2023-08-07T09:24:47;97913.16;;;13.64;50.39
43741;BME280;29352;48.708;9.290;2023-08-07T09:27:13;97918.41;;;13.59;51.16
43741;BME280;29352;48.708;9.290;2023-08-07T09:29:43;97915.41;;;12.97;51.93
43741;BME280;29352;48.708;9.290;2023-08-07T09:32:11;97918.53;;;13.06;50.49
43741;BME280;29352;48.708;9.290;2023-08-07T09:34:42;97921.44;;;12.50;51.29
43741;BME280;29352;48.708;9.290;2023-08-07T09:37:10;97930.13;;;12.34;51.46
43741;BME280;29352;48.708;9.290;2023-08-07T09:39:36;97927.91;;;11.82;53.04
43741;BME280;29352;48.708;9.290;2023-08-07T09:42:03;97924.38;;;11.82;54.40
43741;BME280;29352;48.708;9.290;2023-08-07T09:44:36;97930.09;;;11.85;53.66
43741;BME280;29352;48.708;9.290;2023-08-07T09:47:16;97926.38;;;11.50;54.17
43741;BME280;29352;48.708;9.290;2023-08-07T09:49:45;97936.72;;;11.65;54.99
43741;BME280;29352;48.708;9.290;2023-08-07T09:52:13;97930.09;;;11.67;53.90
43741;BME280;29352;48.708;9.290;2023-08-07T09:54:41;97933.88;;;11.78;55.00
43741;BME280;29352;48.708;9.290;2023-08-07T09:57:07;97931.75;;;11.87;53.80
43741;BME280;29352;48.708;9.290;2023-08-07T09:59:34;97933.56;;;12.04;53.59
43741;BME280;29352;48.708;9.290;2023-08-07T10:02:01;97942.94;;;12.44;53.68
43741;BME280;29352;48.708;9.290;2023-08-07T10:04:28;97944.97;;;12.00;54.02
43741;BME280;29352;48.708;9.290;2023-08-07T10:06:55;97942.66;;;11.48;53.74
43741;BME280;29352;48.708;9.290;2023-08-07T10:09:22;97945.53;;;11.47;53.78
43741;BME280;29352;48.708;9.290;2023-08-07T10:11:51;97937.41;;;12.27;51.47
43741;BME280;29352;48.708;9.290;2023-08-07T10:16:45;97938.72;;;13.32;52.63
43741;BME280;29352;48.708;9.290;2023-08-07T10:19:11;97943.59;;;13.23;51.52
43741;BME280;29352;48.708;9.290;2023-08-07T10:21:41;97947.06;;;13.94;50.38
43741;BME280;29352;48.708;9.290;2023-08-07T10:24:10;97949.28;;;13.97;50.14
43741;BME280;29352;48.708;9.290;2023-08-07T10:26:42;97941.41;;;14.07;49.95
43741;BME280;29352;48.708;9.290;2023-08-07T10:29:14;97943.16;;;13.14;51.21
43741;BME280;29352;48.708;9.290;2023-08-07T10:31:45;97941.75;;;13.35;50.81
43741;BME280;29352;48.708;9.290;2023-08-07T10:34:13;97937.53;;;13.51;49.75
43741;BME280;29352;48.708;9.290;2023-08-07T10:36:39;97935.53;;;13.82;49.71
43741;BME280;29352;48.708;9.290;2023-08-07T10:39:10;97933.44;;;13.72;49.88
43741;BME280;29352;48.708;9.290;2023-08-07T10:41:42;97940.28;;;14.32;49.70
43741;BME280;29352;48.708;9.290;2023-08-07T10:44:24;97938.97;;;14.06;49.14
43741;BME280;29352;48.708;9.290;2023-08-07T10:46:55;97947.06;;;13.59;49.85
43741;BME280;29352;48.708;9.290;2023-08-07T10:49:40;97944.72;;;13.86;50.27
43741;BME280;29352;48.708;9.290;2023-08-07T10:52:14;97950.13;;;13.39;50.46
43741;BME280;29352;48.708;9.290;2023-08-07T10:54:45;97936.41;;;12.82;51.80
43741;BME280;29352;48.708;9.290;2023-08-07T10:57:14;97948.28;;;12.62;51.48
43741;BME280;29352;48.708;9.290;2023-08-07T11:00:02;97952.56;;;12.63;51.88
43741;BME280;29352;48.708;9.290;2023-08-07T11:02:37;97951.97;;;13.03;50.90
43741;BME280;29352;48.708;9.290;2023-08-07T11:05:05;97946.34;;;12.93;50.48
43741;BME280;29352;48.708;9.290;2023-08-07T11:07:32;97947.22;;;12.33;52.83
43741;BME280;29352;48.708;9.290;2023-08-07T11:09:59;97938.38;;;12.33;52.21
43741;BME280;29352;48.708;9.290;2023-08-07T11:12:26;97950.50;;;12.77;52.17
43741;BME280;29352;48.708;9.290;2023-08-07T11:14:53;97950.84;;;12.69;53.16
43741;BME280;29352;48.708;9.290;2023-08-07T11:17:24;97960.94;;;12.55;52.49
43741;BME280;29352;48.708;9.290;2023-08-07T11:19:51;97958.81;;;12.57;52.01
43741;BME280;29352;48.708;9.290;2023-08-07T11:22:16;97951.84;;;12.56;52.54
43741;BME280;29352;48.708;9.290;2023-08-07T11:24:42;97954.34;;;12.69;54.06
43741;BME280;29352;48.708;9.290;2023-08-07T11:27:08;97940.53;;;12.96;53.25
43741;BME280;29352;48.708;9.290;2023-08-07T11:29:34;97947.91;;;13.36;52.37
43741;BME280;29352;48.708;9.290;2023-08-07T11:31:59;97949.25;;;12.19;52.39
43741;BME280;29352;48.708;9.290;2023-08-07T11:34:25;97955.38;;;11.90;52.33
43741;BME280;29352;48.708;9.290;2023-08-07T11:36:51;97952.25;;;11.93;52.13
43741;BME280;29352;48.708;9.290;2023-08-07T11:39:16;97954.31;;;11.91;54.67
43741;BME280;29352;48.708;9.290;2023-08-07T11:41:43;97961.94;;;11.50;54.59
43741;BME280;29352;48.708;9.290;2023-08-07T11:44:09;97962.69;;;11.39;55.16
43741;BME280;29352;48.708;9.290;2023-08-07T11:46:35;97963.50;;;11.40;56.54
43741;BME280;29352;48.708;9.290;2023-08-07T11:49:02;97966.03;;;11.34;56.61
43741;BME280;29352;48.708;9.290;2023-08-07T11:51:30;97960.25;;;11.31;56.30
43741;BME280;29352;48.708;9.290;2023-08-07T11:53:56;97974.25;;;11.26;56.28
43741;BME280;29352;48.708;9.290;2023-08-07T11:56:24;97970.44;;;10.90;57.50
43741;BME280;29352;48.708;9.290;2023-08-07T11:58:52;97971.63;;;10.70;58.11
43741;BME280;29352;48.708;9.290;2023-08-07T12:01:23;97985.00;;;10.63;58.17
43741;BME280;29352;48.708;9.290;2023-08-07T12:04:10;97978.16;;;10.35;58.75
43741;BME280;29352;48.708;9.290;2023-08-07T12:06:36;97988.06;;;10.22;59.24
43741;BME280;29352;48.708;9.290;2023-08-07T12:09:05;97980.94;;;10.09;59.21
43741;BME280;29352;48.708;9.290;2023-08-07T12:11:31;97989.34;;;10.12;58.69
43741;BME280;29352;48.708;9.290;2023-08-07T12:14:00;97996.44;;;9.67;59.07
43741;BME280;29352;48.708;9.290;2023-08-07T12:16:35;97994.78;;;9.59;60.57
43741;BME280;29352;48.708;9.290;2023-08-07T12:19:01;97995.63;;;9.46;61.93
43741;BME280;29352;48.708;9.290;2023-08-07T12:21:27;98001.81;;;9.27;62.49
43741;BME280;29352;48.708;9.290;2023-08-07T12:23:56;98004.69;;;9.19;62.32
43741;BME280;29352;48.708;9.290;2023-08-07T12:26:22;98011.63;;;9.13;62.45
43741;BME280;29352;48.708;9.290;2023-08-07T12:28:47;98011.44;;;9.68;61.38
43741;BME280;29352;48.708;9.290;2023-08-07T12:31:13;98025.78;;;9.54;61.19
43741;BME280;29352;48.708;9.290;2023-08-07T12:33:38;98024.09;;;9.53;62.18
43741;BME280;29352;48.708;9.290;2023-08-07T12:36:04;98026.78;;;9.39;62.82
43741;BME280;29352;48.708;9.290;2023-08-07T12:38:30;98025.13;;;9.12;65.01
43741;BME280;29352;48.708;9.290;2023-08-07T12:40:56;98015.50;;;9.57;65.31
43741;BME280;29352;48.708;9.290;2023-08-07T12:43:22;98018.19;;;9.51;64.95
43741;BME280;29352;48.708;9.290;2023-08-07T12:45:47;98007.44;;;10.04;64.10
43741;BME280;29352;48.708;9.290;2023-08-07T12:48:13;98008.59;;;10.21;63.16
43741;BME280;29352;48.708;9.290;2023-08-07T12:50:39;98010.03;;;10.24;62.20
43741;BME280;29352;48.708;9.290;2023-08-07T12:53:06;98008.88;;;10.58;61.08
43741;BME280;29352;48.708;9.290;2023-08-07T12:55:33;98021.25;;;10.32;61.07
43741;BME280;29352;48.708;9.290;2023-08-07T12:57:58;98014.59;;;10.93;59.62
43741;BME280;29352;48.708;9.290;2023-08-07T13:00:24;98012.47;;;11.02;60.05
43741;BME280;29352;48.708;9.290;2023-08-07T13:02:50;98015.91;;;10.77;60.26
43741;BME280;29352;48.708;9.290;2023-08-07T13:05:17;98011.53;;;11.46;59.53
43741;BME280;29352;48.708;9.290;2023-08-07T13:07:46;98012.63;;;11.39;59.74
43741;BME280;29352;48.708;9.290;2023-08-07T13:10:14;98010.38;;;11.60;59.36
43741;BME280;29352;48.708;9.290;2023-08-07T13:12:43;98018.25;;;11.55;59.22
43741;BME280;29352;48.708;9.290;2023-08-07T13:15:14;98008.06;;;11.14;58.81
43741;BME280;29352;48.708;9.290;2023-08-07T13:17:41;98014.97;;;11.53;57.87
43741;BME280;29352;48.708;9.290;2023-08-07T13:20:09;98011.03;;;11.56;58.37